Time;durP1;ratioP1;P1;durP2;ratioP2;P2;SDS_P1;SDS_P2;PMS_P1;PMS_P2;Temp;Humidity;BMP_temperature;BMP_pressure;BME280_temperature;BME280_humidity;BME280_pressure;Samples;Min_cycle;Max_cycle;Signal;HPM_P1;HPM_P2
2021/12/20 00:01:22;;;;;;;6.25;1.85;;;12.90;90.70;;;;;;10543424;28;20055;-66
2021/12/20 00:06:24;;;;;;;5.70;1.88;;;12.80;90.70;;;;;;10543235;28;20052;-66
2021/12/20 00:11:25;;;;;;;7.07;2.40;;;12.80;90.70;;;;;;10543194;28;20047;-66
2021/12/20 00:16:27;;;;;;;6.13;2.10;;;12.80;90.70;;;;;;10542661;28;20040;-66
2021/12/20 00:21:28;;;;;;;6.20;2.15;;;12.90;90.70;;;;;;10506399;28;20060;-66
2021/12/20 00:26:30;;;;;;;5.18;1.63;;;12.80;90.70;;;;;;10500885;28;20063;-66
2021/12/20 00:31:31;;;;;;;6.63;1.95;;;12.80;90.70;;;;;;10500396;28;20087;-66
2021/12/20 00:36:33;;;;;;;6.00;2.00;;;12.80;90.70;;;;;;10500469;28;20044;-66
2021/12/20 00:41:34;;;;;;;5.03;1.90;;;12.80;90.60;;;;;;10499915;28;20053;-66
2021/12/20 00:46:36;;;;;;;5.68;1.90;;;12.80;90.60;;;;;;10499898;28;20049;-66
2021/12/20 00:51:37;;;;;;;6.05;2.20;;;12.80;90.60;;;;;;10539408;28;20044;-66
2021/12/20 00:56:39;;;;;;;5.57;1.90;;;12.80;90.60;;;;;;10541402;28;20048;-66
2021/12/20 01:01:40;;;;;;;6.70;2.08;;;12.80;90.60;;;;;;10541008;28;20056;-66
2021/12/20 01:06:42;;;;;;;4.93;1.73;;;12.80;90.60;;;;;;10541140;28;20127;-66
2021/12/20 01:11:49;;;;;;;6.40;2.15;;;12.80;90.60;;;;;;10541066;28;20051;-66
2021/12/20 01:16:51;;;;;;;5.03;1.80;;;12.80;90.60;;;;;;10535731;28;20083;-66
2021/12/20 01:21:52;;;;;;;5.13;1.75;;;12.80;90.80;;;;;;10498873;28;20437;-66
2021/12/20 01:26:54;;;;;;;4.38;1.40;;;12.80;90.50;;;;;;10498292;28;20045;-66
2021/12/20 01:31:55;;;;;;;4.05;1.50;;;12.80;90.60;;;;;;10497940;28;20047;-66
2021/12/20 01:36:57;;;;;;;6.32;2.08;;;12.70;90.50;;;;;;10497921;28;20456;-66
2021/12/20 01:42:00;;;;;;;6.68;1.90;;;12.80;90.50;;;;;;10497642;28;20053;-66
2021/12/20 01:47:02;;;;;;;6.32;1.88;;;12.80;90.50;;;;;;10510399;28;20048;-66
2021/12/20 01:52:11;;;;;;;5.13;1.90;;;12.70;90.50;;;;;;10539244;28;20040;-66
2021/12/20 01:57:12;;;;;;;5.53;1.65;;;12.70;90.50;;;;;;10539264;28;20052;-66
2021/12/20 02:02:14;;;;;;;4.78;1.80;;;12.80;90.50;;;;;;10538479;28;20105;-66
2021/12/20 02:07:33;;;;;;;5.53;1.90;;;12.80;90.50;;;;;;10538124;28;20489;-66
2021/12/20 02:12:35;;;;;;;6.05;1.83;;;12.70;90.50;;;;;;10538549;28;20123;-66
2021/12/20 02:17:36;;;;;;;4.80;1.67;;;12.70;90.40;;;;;;10520488;28;20049;-66
2021/12/20 02:22:38;;;;;;;5.63;1.80;;;12.80;90.40;;;;;;10496109;28;20054;-66
2021/12/20 02:27:40;;;;;;;4.82;1.67;;;12.70;90.40;;;;;;10496029;28;20076;-66
2021/12/20 02:38:00;;;;;;;5.10;1.70;;;12.70;90.40;;;;;;10495803;28;20037;-66
2021/12/20 02:43:02;;;;;;;6.22;1.90;;;12.70;90.40;;;;;;10495572;28;20486;-66
2021/12/20 02:48:03;;;;;;;5.22;1.85;;;12.70;90.40;;;;;;10505586;28;20052;-66
2021/12/20 02:53:05;;;;;;;5.38;2.00;;;12.70;90.40;;;;;;10536979;28;20420;-66
2021/12/20 02:58:06;;;;;;;4.65;1.90;;;12.70;90.30;;;;;;10537075;28;20439;-66
2021/12/20 03:03:08;;;;;;;6.35;1.88;;;12.70;90.30;;;;;;10536749;28;20455;-66
2021/12/20 03:08:10;;;;;;;4.22;1.55;;;12.70;90.30;;;;;;10536672;28;20058;-66
2021/12/20 03:13:11;;;;;;;5.72;1.85;;;12.70;90.30;;;;;;10536579;28;20048;-66
2021/12/20 03:18:12;;;;;;;4.10;1.60;;;12.70;90.30;;;;;;10542658;28;20408;-66
2021/12/20 03:23:14;;;;;;;3.88;1.92;;;12.70;90.30;;;;;;10545071;28;20497;-66
2021/12/20 03:28:15;;;;;;;4.57;1.63;;;12.70;90.30;;;;;;10544904;28;20484;-66
2021/12/20 03:33:17;;;;;;;3.55;1.38;;;12.70;90.20;;;;;;10544744;28;20051;-66
2021/12/20 03:38:18;;;;;;;5.05;1.60;;;12.70;90.50;;;;;;10544723;28;20051;-66
2021/12/20 03:43:20;;;;;;;5.60;1.77;;;12.70;90.20;;;;;;10544269;28;20059;-66
2021/12/20 03:48:21;;;;;;;3.55;1.52;;;12.70;90.20;;;;;;10524620;28;20501;-66
2021/12/20 03:53:23;;;;;;;4.35;1.65;;;12.70;90.20;;;;;;10501978;28;20051;-66
2021/12/20 03:58:26;;;;;;;4.38;1.50;;;12.70;90.20;;;;;;10501932;28;20051;-66
2021/12/20 04:03:30;;;;;;;4.13;1.48;;;12.70;90.10;;;;;;10501435;28;20087;-66
2021/12/20 04:08:32;;;;;;;4.47;1.55;;;12.70;90.10;;;;;;10501325;28;20140;-66
2021/12/20 04:13:33;;;;;;;4.07;1.48;;;12.70;90.10;;;;;;10501392;28;20044;-65
2021/12/20 04:18:35;;;;;;;4.68;1.50;;;12.70;90.10;;;;;;10523627;28;20051;-66
2021/12/20 04:23:36;;;;;;;3.67;1.63;;;12.70;90.00;;;;;;10542656;28;20048;-66
2021/12/20 04:28:38;;;;;;;5.28;1.70;;;12.70;90.10;;;;;;10542196;28;20059;-66
2021/12/20 04:33:39;;;;;;;4.43;1.52;;;12.60;90.00;;;;;;10542364;28;20048;-66
2021/12/20 04:38:41;;;;;;;2.97;1.13;;;12.70;90.00;;;;;;10542093;28;20044;-66
2021/12/20 04:43:42;;;;;;;4.05;1.17;;;12.70;90.00;;;;;;10541717;28;20546;-66
2021/12/20 04:48:44;;;;;;;3.53;1.50;;;12.60;90.00;;;;;;10512573;28;20044;-66
2021/12/20 04:53:45;;;;;;;3.75;1.35;;;12.70;90.00;;;;;;10499855;28;20071;-66
2021/12/20 04:58:47;;;;;;;3.95;1.58;;;12.70;89.90;;;;;;10499825;28;20052;-66
2021/12/20 05:03:48;;;;;;;2.90;1.30;;;12.60;89.90;;;;;;10499267;28;20048;-66
2021/12/20 05:08:50;;;;;;;2.85;1.38;;;12.70;89.80;;;;;;10499471;28;20056;-65
2021/12/20 05:13:52;;;;;;;2.85;1.17;;;12.70;89.80;;;;;;10499120;28;20047;-66
2021/12/20 05:18:53;;;;;;;3.45;1.55;;;12.60;90.00;;;;;;10511010;28;20105;-66
2021/12/20 05:23:55;;;;;;;4.13;1.50;;;12.60;89.70;;;;;;10540204;28;20048;-66
2021/12/20 05:28:56;;;;;;;3.00;1.20;;;12.60;89.60;;;;;;10540164;28;20048;-66
2021/12/20 05:33:58;;;;;;;3.42;1.25;;;12.60;89.70;;;;;;10540128;28;20056;-66
2021/12/20 05:38:59;;;;;;;3.05;1.20;;;12.60;89.60;;;;;;10538789;28;20048;-66
2021/12/20 05:44:00;;;;;;;3.67;1.60;;;12.60;89.50;;;;;;10539271;28;20051;-66
2021/12/20 05:49:02;;;;;;;4.47;1.80;;;12.60;89.50;;;;;;10538845;28;20458;-66
2021/12/20 05:54:03;;;;;;;3.20;1.40;;;12.60;89.50;;;;;;10539062;28;20471;-66
2021/12/20 05:59:05;;;;;;;3.33;1.42;;;12.60;89.40;;;;;;10538792;28;20554;-66
2021/12/20 06:04:06;;;;;;;4.78;1.70;;;12.60;89.40;;;;;;10538738;28;20511;-66
2021/12/20 06:09:08;;;;;;;4.00;1.58;;;12.60;89.30;;;;;;10538453;28;20055;-66
2021/12/20 06:14:09;;;;;;;2.83;1.20;;;12.60;89.30;;;;;;10538647;28;20055;-66
2021/12/20 06:19:11;;;;;;;4.72;1.65;;;12.60;89.30;;;;;;10516442;28;20051;-66
2021/12/20 06:24:12;;;;;;;4.00;1.50;;;12.60;89.20;;;;;;10496376;28;20061;-66
2021/12/20 06:29:14;;;;;;;4.22;1.70;;;12.60;89.10;;;;;;10496112;28;20086;-66
2021/12/20 06:34:15;;;;;;;4.15;1.52;;;12.60;89.20;;;;;;10496207;28;20040;-66
2021/12/20 06:39:17;;;;;;;3.67;1.20;;;12.60;89.10;;;;;;10495935;28;20052;-66
2021/12/20 06:44:18;;;;;;;3.90;1.40;;;12.60;89.00;;;;;;10495560;28;20147;-66
2021/12/20 06:49:20;;;;;;;4.93;1.63;;;12.60;89.00;;;;;;10528912;28;20508;-66
2021/12/20 06:54:21;;;;;;;3.45;1.20;;;12.60;89.50;;;;;;10537561;28;20515;-66
2021/12/20 06:59:23;;;;;;;3.30;1.40;;;12.60;88.90;;;;;;10536881;28;20048;-66
2021/12/20 07:04:24;;;;;;;5.93;1.50;;;12.60;88.90;;;;;;10536932;28;20052;-66
2021/12/20 07:09:26;;;;;;;3.58;1.48;;;12.60;88.80;;;;;;10536587;28;20052;-66
2021/12/20 07:14:28;;;;;;;4.30;1.38;;;12.60;88.80;;;;;;10537009;28;20071;-67
2021/12/20 07:19:29;;;;;;;4.53;1.50;;;12.60;88.90;;;;;;10506168;28;20053;-65
2021/12/20 07:24:31;;;;;;;4.90;1.80;;;12.60;88.70;;;;;;10494697;28;20052;-67
2021/12/20 07:29:32;;;;;;;3.90;1.40;;;12.60;88.60;;;;;;10494739;28;20392;-65
2021/12/20 07:34:34;;;;;;;3.85;1.27;;;12.60;88.70;;;;;;10494626;28;20055;-66
2021/12/20 07:39:35;;;;;;;3.20;1.50;;;12.50;88.60;;;;;;10494570;28;20048;-66
2021/12/20 07:44:36;;;;;;;5.43;1.80;;;12.60;88.60;;;;;;10494194;28;20484;-66
2021/12/20 07:49:38;;;;;;;5.15;1.67;;;12.50;88.60;;;;;;10524221;28;20101;-66
2021/12/20 07:54:39;;;;;;;2.97;1.17;;;12.50;88.60;;;;;;10536088;28;20090;-66
2021/12/20 07:59:41;;;;;;;4.53;1.58;;;12.60;88.60;;;;;;10536090;28;20051;-66
2021/12/20 08:04:48;;;;;;;2.92;1.52;;;12.60;88.50;;;;;;10542504;28;20055;-66
2021/12/20 08:09:49;;;;;;;4.32;1.58;;;12.60;88.40;;;;;;10543262;28;20048;-66
2021/12/20 08:14:51;;;;;;;5.30;1.83;;;12.70;88.30;;;;;;10543339;28;20584;-66
2021/12/20 08:19:52;;;;;;;3.60;1.40;;;12.60;88.20;;;;;;10542591;28;20059;-66
2021/12/20 08:24:54;;;;;;;3.17;1.40;;;12.60;88.20;;;;;;10542900;28;20117;-66
2021/12/20 08:29:55;;;;;;;4.78;1.77;;;12.60;88.20;;;;;;10542708;28;20048;-66
2021/12/20 08:34:57;;;;;;;3.03;1.40;;;12.60;88.10;;;;;;10542282;28;20051;-66
2021/12/20 08:39:58;;;;;;;2.95;1.38;;;12.70;88.10;;;;;;10542301;28;20451;-66
2021/12/20 08:45:00;;;;;;;4.07;1.40;;;12.70;88.10;;;;;;10541956;28;20090;-66
2021/12/20 08:50:01;;;;;;;2.88;1.40;;;12.60;87.90;;;;;;10501934;28;20049;-66
2021/12/20 08:55:02;;;;;;;3.28;1.13;;;12.80;87.90;;;;;;10499836;28;20055;-66
2021/12/20 09:00:04;;;;;;;2.72;1.40;;;12.90;87.70;;;;;;10499458;28;20055;-66
2021/12/20 09:05:05;;;;;;;1.83;0.90;;;12.90;87.30;;;;;;10499320;28;20061;-66
2021/12/20 09:10:07;;;;;;;3.83;1.48;;;13.10;87.10;;;;;;10499226;28;20106;-66
2021/12/20 09:15:08;;;;;;;3.45;1.40;;;13.20;86.90;;;;;;10498990;28;20041;-66
2021/12/20 09:20:10;;;;;;;2.47;1.35;;;13.30;86.70;;;;;;10533748;28;20385;-66
2021/12/20 09:25:11;;;;;;;2.40;1.10;;;13.40;86.50;;;;;;10540435;28;20492;-66
2021/12/20 09:30:13;;;;;;;2.35;1.08;;;13.40;86.40;;;;;;10540397;28;20052;-66
2021/12/20 09:35:14;;;;;;;2.00;0.90;;;13.50;86.30;;;;;;10539896;28;20048;-66
2021/12/20 09:40:16;;;;;;;2.97;1.33;;;13.50;86.20;;;;;;10540059;28;20047;-66
2021/12/20 09:45:17;;;;;;;2.30;1.00;;;13.50;86.20;;;;;;10539312;28;20048;-66
2021/12/20 09:50:19;;;;;;;2.10;1.15;;;13.50;86.20;;;;;;10539408;28;20069;-66
2021/12/20 09:55:20;;;;;;;2.38;1.10;;;13.50;86.20;;;;;;10539225;28;20105;-66
2021/12/20 10:00:21;;;;;;;2.55;1.20;;;13.50;86.20;;;;;;10539055;28;20069;-66
2021/12/20 10:05:23;;;;;;;1.80;0.93;;;13.40;86.10;;;;;;10538566;28;20169;-66
2021/12/20 10:10:24;;;;;;;2.15;0.95;;;13.40;86.10;;;;;;10538605;28;20075;-66
2021/12/20 10:15:26;;;;;;;1.80;0.80;;;13.50;86.20;;;;;;10536416;28;20401;-66
2021/12/20 10:20:27;;;;;;;2.53;1.00;;;13.50;86.30;;;;;;10527587;28;20472;-65
2021/12/20 10:25:30;;;;;;;1.33;0.70;;;13.40;86.10;;;;;;10535198;28;20047;-65
2021/12/20 10:30:32;;;;;;;1.98;0.90;;;13.60;86.40;;;;;;10537519;28;20044;-66
2021/12/20 10:35:33;;;;;;;1.17;0.60;;;14.00;86.70;;;;;;10536080;28;20102;-66
2021/12/20 10:40:35;;;;;;;1.55;0.70;;;14.60;86.10;;;;;;10534348;28;20055;-67
2021/12/20 10:45:37;;;;;;;1.15;0.55;;;15.00;85.20;;;;;;10535003;28;20044;-67
2021/12/20 10:50:42;;;;;;;3.38;0.70;;;15.60;84.60;;;;;;10526838;28;20044;-66
2021/12/20 10:55:44;;;;;;;6.28;0.80;;;16.10;84.20;;;;;;10524683;28;20048;-67
2021/12/20 11:00:45;;;;;;;2.10;0.77;;;16.50;83.70;;;;;;10514554;28;20067;-68
2021/12/20 11:06:11;;;;;;;1.27;0.43;;;16.90;82.80;;;;;;10535104;28;20060;-66
2021/12/20 11:11:08;;;;;;;2.42;0.43;;;17.20;82.00;;;;;;10534768;28;20040;-66
2021/12/20 11:16:10;;;;;;;1.38;0.52;;;17.50;81.60;;;;;;10535092;28;20040;-67
2021/12/20 11:21:11;;;;;;;1.77;0.52;;;17.70;81.20;;;;;;10535008;28;20055;-67
2021/12/20 11:26:13;;;;;;;1.15;0.70;;;17.80;80.90;;;;;;10534865;28;20121;-66
2021/12/20 11:31:14;;;;;;;1.20;0.65;;;17.90;80.90;;;;;;10534754;28;20455;-67
2021/12/20 11:36:16;;;;;;;4.25;1.00;;;17.90;80.70;;;;;;10535749;28;20382;-68
2021/12/20 11:41:17;;;;;;;2.55;1.20;;;17.90;80.70;;;;;;10542872;28;20090;-67
2021/12/20 11:46:19;;;;;;;4.15;1.30;;;17.60;80.30;;;;;;10541912;28;20106;-65
2021/12/20 11:51:20;;;;;;;2.55;0.90;;;17.40;80.60;;;;;;10542732;28;20051;-68
2021/12/20 11:56:22;;;;;;;2.17;0.80;;;17.40;80.80;;;;;;10542231;28;20229;-70
2021/12/20 12:01:23;;;;;;;3.45;0.90;;;17.40;80.80;;;;;;10541918;28;20047;-66
2021/12/20 12:06:25;;;;;;;1.95;0.90;;;17.40;81.50;;;;;;10541740;28;20063;-67
2021/12/20 12:11:26;;;;;;;1.27;0.63;;;17.60;81.20;;;;;;10541282;28;20113;-67
2021/12/20 12:16:29;;;;;;;1.63;0.70;;;17.80;80.90;;;;;;10541423;28;20071;-67
2021/12/20 12:21:31;;;;;;;2.80;0.85;;;17.90;80.60;;;;;;10541595;28;20040;-68
2021/12/20 12:26:32;;;;;;;1.95;0.70;;;18.00;80.40;;;;;;10541341;28;20056;-68
2021/12/20 12:31:34;;;;;;;2.15;0.70;;;18.10;80.30;;;;;;10541238;28;20101;-67
2021/12/20 12:36:39;;;;;;;2.65;0.70;;;18.20;80.20;;;;;;10540529;28;20052;-67
2021/12/20 12:41:41;;;;;;;1.40;0.60;;;18.20;80.10;;;;;;10536621;28;20044;-67
2021/12/20 12:46:43;;;;;;;1.77;0.70;;;18.30;80.10;;;;;;10536813;28;20893;-68
2021/12/20 12:51:45;;;;;;;1.23;0.50;;;18.40;80.00;;;;;;10537584;28;20511;-68
2021/12/20 12:56:46;;;;;;;2.38;0.60;;;18.60;79.70;;;;;;10538616;28;20044;-67
2021/12/20 13:01:48;;;;;;;2.00;0.77;;;19.00;79.50;;;;;;10538132;28;20040;-68
2021/12/20 13:06:49;;;;;;;2.92;0.60;;;19.30;79.00;;;;;;10534060;28;20064;-68
2021/12/20 13:11:50;;;;;;;1.95;0.70;;;19.60;78.60;;;;;;10499719;28;21838;-68
2021/12/20 13:16:52;;;;;;;1.48;0.60;;;19.90;78.30;;;;;;10534363;28;20048;-68
2021/12/20 13:21:54;;;;;;;1.58;0.60;;;20.10;78.00;;;;;;10533854;28;20056;-68
2021/12/20 13:26:56;;;;;;;1.02;0.50;;;20.30;77.90;;;;;;10533667;28;20048;-67
2021/12/20 13:31:57;;;;;;;1.50;0.60;;;20.30;77.80;;;;;;10522386;28;20040;-67
2021/12/20 13:37:00;;;;;;;0.93;0.43;;;20.40;77.80;;;;;;10533623;28;20136;-67
2021/12/20 13:42:02;;;;;;;1.73;0.60;;;20.40;77.80;;;;;;10523341;28;20498;-67
2021/12/20 13:47:05;;;;;;;1.00;0.50;;;20.40;77.80;;;;;;10490966;28;20110;-67
2021/12/20 13:52:07;;;;;;;1.75;0.55;;;20.40;77.70;;;;;;10524313;28;20139;-67
2021/12/20 13:57:11;;;;;;;0.65;0.35;;;20.40;77.80;;;;;;10532723;28;20488;-67
2021/12/20 14:02:12;;;;;;;1.67;0.68;;;20.40;77.70;;;;;;10531581;28;20117;-67
2021/12/20 14:07:14;;;;;;;0.55;0.30;;;20.40;77.70;;;;;;10532837;28;20520;-67
2021/12/20 14:12:15;;;;;;;0.80;0.40;;;20.40;77.60;;;;;;10531697;28;20066;-67
2021/12/20 14:17:17;;;;;;;1.30;0.50;;;20.40;77.60;;;;;;10532639;28;20051;-67
2021/12/20 14:22:18;;;;;;;0.70;0.45;;;20.40;77.60;;;;;;10532014;28;20055;-67
2021/12/20 14:27:20;;;;;;;2.03;0.50;;;20.40;77.60;;;;;;10531046;28;20054;-67
2021/12/20 14:32:25;;;;;;;0.68;0.30;;;20.40;77.60;;;;;;10531799;28;20044;-67
2021/12/20 14:37:26;;;;;;;1.13;0.52;;;20.40;77.50;;;;;;10505888;28;20052;-67
2021/12/20 14:42:28;;;;;;;1.30;0.50;;;20.40;77.50;;;;;;10526285;28;20040;-67
2021/12/20 14:47:38;;;;;;;0.80;0.30;;;20.40;77.40;;;;;;10530706;28;20056;-67
2021/12/20 14:52:40;;;;;;;1.98;0.50;;;20.50;77.30;;;;;;10523216;28;20043;-67
2021/12/20 14:57:41;;;;;;;2.28;0.65;;;20.60;77.30;;;;;;10530120;28;20048;-66
2021/12/20 15:02:45;;;;;;;1.70;0.80;;;20.80;77.10;;;;;;10527227;28;20047;-67
2021/12/20 15:07:46;;;;;;;2.25;0.80;;;21.00;76.90;;;;;;10510589;28;20052;-67
2021/12/20 15:12:48;;;;;;;2.97;0.90;;;21.20;76.70;;;;;;10525205;28;20054;-67
2021/12/20 15:17:49;;;;;;;2.80;1.20;;;21.20;76.70;;;;;;10540334;28;20051;-67
2021/12/20 15:22:51;;;;;;;2.35;1.05;;;21.30;76.50;;;;;;10539571;28;20538;-68
2021/12/20 15:27:54;;;;;;;1.95;0.90;;;21.30;76.40;;;;;;10542131;28;20055;-67
2021/12/20 15:32:56;;;;;;;2.97;1.00;;;21.30;76.30;;;;;;10533340;28;20052;-67
2021/12/20 15:37:58;;;;;;;2.67;1.10;;;21.30;76.00;;;;;;10541183;28;20475;-68
2021/12/20 15:43:01;;;;;;;2.58;1.08;;;21.40;75.80;;;;;;10540370;28;20558;-67
2021/12/20 15:48:02;;;;;;;2.15;1.15;;;21.30;75.70;;;;;;10523697;28;20058;-67
2021/12/20 15:53:04;;;;;;;2.28;1.10;;;21.40;75.70;;;;;;10535213;28;20106;-66
2021/12/20 15:58:05;;;;;;;2.47;1.20;;;21.40;75.60;;;;;;10516836;28;20055;-67
2021/12/20 16:03:07;;;;;;;1.65;0.90;;;21.40;75.60;;;;;;10540807;28;20055;-67
2021/12/20 16:08:08;;;;;;;2.22;1.08;;;21.40;75.60;;;;;;10503944;28;20052;-67
2021/12/20 16:13:11;;;;;;;1.88;1.02;;;21.40;75.70;;;;;;10539093;28;20444;-66
2021/12/20 16:18:13;;;;;;;1.90;1.17;;;21.40;75.60;;;;;;10531435;28;20274;-67
2021/12/20 16:23:14;;;;;;;2.08;1.08;;;21.50;75.60;;;;;;10537294;28;20048;-68
2021/12/20 16:28:16;;;;;;;3.58;1.40;;;21.50;75.60;;;;;;10534811;28;20451;-68
2021/12/20 16:33:17;;;;;;;2.47;1.20;;;21.50;75.60;;;;;;10509821;28;20520;-67
2021/12/20 16:38:19;;;;;;;2.30;1.40;;;21.50;75.40;;;;;;10523729;28;20048;-68
2021/12/20 16:43:21;;;;;;;2.85;1.00;;;21.60;75.20;;;;;;10534758;28;20048;-68
2021/12/20 16:48:23;;;;;;;2.63;1.35;;;21.70;75.20;;;;;;10518664;28;20040;-68
2021/12/20 16:53:25;;;;;;;2.13;1.05;;;21.70;75.00;;;;;;10532500;28;20052;-67
2021/12/20 16:58:26;;;;;;;2.17;1.25;;;21.70;74.90;;;;;;10533811;28;20056;-67
2021/12/20 17:03:45;;;;;;;1.80;1.05;;;21.70;74.90;;;;;;10527890;28;20056;-67
2021/12/20 17:08:46;;;;;;;2.17;1.15;;;21.80;74.80;;;;;;10532491;28;20052;-68
2021/12/20 17:13:49;;;;;;;2.20;1.45;;;21.80;74.80;;;;;;10516616;28;20032;-69
2021/12/20 17:18:51;;;;;;;3.25;1.30;;;21.80;74.80;;;;;;10517792;28;20044;-69
2021/12/20 17:23:52;;;;;;;3.17;1.45;;;21.80;74.80;;;;;;10525257;28;20492;-68
2021/12/20 17:28:54;;;;;;;2.35;1.30;;;21.70;74.70;;;;;;10527771;28;20093;-68
2021/12/20 17:33:55;;;;;;;2.45;1.30;;;21.70;74.70;;;;;;10512366;28;20060;-68
2021/12/20 17:38:57;;;;;;;3.25;1.35;;;21.70;74.70;;;;;;10515362;28;20048;-68
2021/12/20 17:43:58;;;;;;;2.65;1.30;;;21.70;74.70;;;;;;10531461;28;20059;-68
2021/12/20 17:49:00;;;;;;;2.22;1.13;;;21.70;74.80;;;;;;10524380;28;20492;-68
2021/12/20 17:54:01;;;;;;;2.47;1.30;;;21.70;74.70;;;;;;10531796;28;20052;-68
2021/12/20 17:59:03;;;;;;;1.85;1.10;;;21.70;74.60;;;;;;10532166;28;20085;-68
2021/12/20 18:04:11;;;;;;;2.15;1.40;;;21.70;74.50;;;;;;10527355;28;20059;-68
2021/12/20 18:09:13;;;;;;;1.50;0.88;;;21.80;74.40;;;;;;10494513;28;20444;-67
2021/12/20 18:14:14;;;;;;;2.75;1.20;;;21.80;74.40;;;;;;10516933;28;20040;-68
2021/12/20 18:19:16;;;;;;;1.48;1.02;;;21.80;74.30;;;;;;10514417;28;20377;-66
2021/12/20 18:24:17;;;;;;;1.77;1.00;;;21.80;74.30;;;;;;10530907;28;20448;-68
2021/12/20 18:29:19;;;;;;;1.98;1.30;;;21.80;74.30;;;;;;10523228;28;20485;-68
2021/12/20 18:34:20;;;;;;;2.42;1.40;;;21.80;74.30;;;;;;10499895;28;20127;-68
2021/12/20 18:39:22;;;;;;;1.63;1.20;;;21.80;74.30;;;;;;10518460;28;20048;-68
2021/12/20 18:44:23;;;;;;;1.88;1.10;;;21.80;74.20;;;;;;10530178;28;20495;-68
2021/12/20 18:49:25;;;;;;;3.38;1.30;;;21.80;74.20;;;;;;10530098;28;20044;-68
2021/12/20 18:54:26;;;;;;;1.42;0.98;;;21.80;74.20;;;;;;10529767;28;20520;-67
2021/12/20 18:59:27;;;;;;;2.40;1.02;;;21.80;74.10;;;;;;10512204;28;20051;-67
2021/12/20 19:04:29;;;;;;;4.32;1.10;;;21.80;74.20;;;;;;10525942;28;20043;-68
2021/12/20 19:09:33;;;;;;;1.70;1.20;;;21.80;74.20;;;;;;10514034;28;20047;-67
2021/12/20 19:14:34;;;;;;;1.70;1.00;;;21.80;74.20;;;;;;10527980;28;20071;-67
2021/12/20 19:19:36;;;;;;;1.67;1.02;;;21.80;74.10;;;;;;10528154;28;20082;-67
2021/12/20 19:24:39;;;;;;;2.28;1.23;;;21.80;74.00;;;;;;10525430;28;20048;-68
2021/12/20 19:29:41;;;;;;;2.60;1.40;;;21.80;74.00;;;;;;10530199;28;20501;-68
2021/12/20 19:34:42;;;;;;;2.15;1.50;;;21.80;73.90;;;;;;10509651;28;20524;-67
2021/12/20 19:39:44;;;;;;;1.83;1.40;;;21.80;74.00;;;;;;10528422;28;20048;-67
2021/12/20 19:44:46;;;;;;;2.42;1.58;;;21.80;73.90;;;;;;10529717;28;20561;-67
2021/12/20 19:49:47;;;;;;;4.70;1.60;;;21.80;73.80;;;;;;10528657;28;20473;-67
2021/12/20 19:54:53;;;;;;;2.30;1.80;;;21.80;73.80;;;;;;10522858;28;20041;-67
2021/12/20 19:59:54;;;;;;;3.77;1.90;;;21.80;73.70;;;;;;10532983;28;20067;-68
2021/12/20 20:04:56;;;;;;;3.83;1.92;;;21.80;73.70;;;;;;10519223;28;20498;-67
2021/12/20 20:09:57;;;;;;;4.82;2.00;;;21.80;73.70;;;;;;10537733;28;20048;-68
2021/12/20 20:14:59;;;;;;;3.13;1.88;;;21.70;73.70;;;;;;10536914;28;20128;-68
2021/12/20 20:20:00;;;;;;;3.15;1.98;;;21.80;73.70;;;;;;10533396;28;20059;-69
2021/12/20 20:25:02;;;;;;;3.15;1.80;;;21.80;73.70;;;;;;10516838;28;20059;-67
2021/12/20 20:30:03;;;;;;;3.08;1.63;;;21.70;73.60;;;;;;10535805;28;20043;-68
2021/12/20 20:35:05;;;;;;;2.47;2.08;;;21.80;73.70;;;;;;10535983;28;20443;-68
2021/12/20 20:40:07;;;;;;;3.03;1.90;;;21.80;73.60;;;;;;10536003;28;20604;-68
2021/12/20 20:45:08;;;;;;;2.10;1.48;;;21.80;73.60;;;;;;10535082;28;20405;-68
2021/12/20 20:50:09;;;;;;;3.40;1.58;;;21.80;73.60;;;;;;10535527;28;20754;-68
2021/12/20 20:55:11;;;;;;;3.03;1.85;;;21.80;73.50;;;;;;10531742;28;20496;-67
2021/12/20 21:05:32;;;;;;;2.95;1.75;;;21.80;73.50;;;;;;10531103;28;20060;-68
2021/12/20 21:10:34;;;;;;;3.95;2.30;;;21.70;73.50;;;;;;10519910;28;20047;-69
2021/12/20 21:15:36;;;;;;;4.90;2.47;;;21.70;73.60;;;;;;10534727;28;20098;-67
2021/12/20 21:20:37;;;;;;;6.57;2.70;;;21.70;73.70;;;;;;10533666;28;20056;-68
2021/12/20 21:25:39;;;;;;;5.30;2.30;;;21.70;73.80;;;;;;10532420;28;20393;-67
2021/12/20 21:30:40;;;;;;;5.05;2.60;;;21.70;73.80;;;;;;10524385;28;20413;-68
2021/12/20 21:35:41;;;;;;;4.25;2.60;;;21.70;73.70;;;;;;10516408;28;20044;-68
2021/12/20 21:40:45;;;;;;;3.65;2.20;;;21.70;73.60;;;;;;10533400;28;20044;-68
2021/12/20 21:45:46;;;;;;;3.85;2.20;;;21.70;73.60;;;;;;10532894;28;20567;-67
2021/12/20 21:50:48;;;;;;;4.88;2.67;;;21.70;73.60;;;;;;10515691;28;20048;-66
2021/12/20 21:55:49;;;;;;;3.47;2.58;;;21.70;73.50;;;;;;10534413;28;20044;-66
2021/12/20 22:00:51;;;;;;;3.28;2.58;;;21.70;73.60;;;;;;10538105;28;20052;-65
2021/12/20 22:05:52;;;;;;;4.75;3.50;;;21.70;73.50;;;;;;10536949;28;20052;-66
2021/12/20 22:10:54;;;;;;;4.45;3.03;;;21.70;73.40;;;;;;10536895;28;20040;-66
2021/12/20 22:15:55;;;;;;;4.75;3.22;;;21.70;73.40;;;;;;10536708;28;20055;-66
2021/12/20 22:20:57;;;;;;;4.95;3.22;;;21.60;73.30;;;;;;10526166;28;20531;-66
2021/12/20 22:25:58;;;;;;;4.75;3.20;;;21.60;73.20;;;;;;10535874;28;20051;-66
2021/12/20 22:31:00;;;;;;;4.43;3.10;;;21.60;73.20;;;;;;10512239;28;20060;-66
2021/12/20 22:36:01;;;;;;;4.53;3.35;;;21.60;73.20;;;;;;10513581;28;20048;-66
2021/12/20 22:41:03;;;;;;;5.10;3.53;;;21.60;73.10;;;;;;10535933;28;20040;-66
2021/12/20 22:46:04;;;;;;;4.28;3.35;;;21.60;73.10;;;;;;10535586;28;20052;-66
2021/12/20 22:51:06;;;;;;;5.28;3.88;;;21.60;73.00;;;;;;10524821;28;20093;-66
2021/12/20 22:56:07;;;;;;;4.57;3.42;;;21.60;73.00;;;;;;10526146;28;20051;-66
2021/12/20 23:01:09;;;;;;;5.07;3.90;;;21.60;73.00;;;;;;10533528;28;20454;-66
2021/12/20 23:06:10;;;;;;;4.97;3.88;;;21.60;72.90;;;;;;10535037;28;20105;-66
2021/12/20 23:11:11;;;;;;;4.40;3.67;;;21.60;72.90;;;;;;10534687;28;20048;-66
2021/12/20 23:16:13;;;;;;;4.22;3.53;;;21.60;72.80;;;;;;10534483;28;20044;-65
2021/12/20 23:21:14;;;;;;;4.53;3.70;;;21.60;72.80;;;;;;10535195;28;20044;-66
2021/12/20 23:26:16;;;;;;;5.07;3.95;;;21.60;72.70;;;;;;10534342;28;20063;-66
2021/12/20 23:31:17;;;;;;;4.40;3.88;;;21.60;72.70;;;;;;10498243;28;20048;-67
2021/12/20 23:36:19;;;;;;;4.97;4.10;;;21.60;72.60;;;;;;10501226;28;20500;-67
2021/12/20 23:41:29;;;;;;;4.28;3.70;;;21.60;72.60;;;;;;10518631;28;20138;-67
2021/12/20 23:46:31;;;;;;;4.70;4.20;;;21.60;72.50;;;;;;10536112;28;20044;-67
2021/12/20 23:51:33;;;;;;;4.55;3.72;;;21.60;72.50;;;;;;10533652;28;20051;-67
2021/12/20 23:56:34;;;;;;;4.43;3.70;;;21.60;72.50;;;;;;10541945;28;20127;-67
